createdAt,value
2022-08-04T00:00:02.883Z,17.71
2022-08-04T00:03:19.645Z,17.68
2022-08-04T00:06:12.075Z,17.66
2022-08-04T00:08:55.817Z,17.67
2022-08-04T00:11:30.269Z,17.73
2022-08-04T00:14:11.672Z,17.78
2022-08-04T00:16:43.180Z,17.79
2022-08-04T00:19:24.838Z,17.82
2022-08-04T00:22:01.368Z,17.87
2022-08-04T00:24:34.781Z,17.93
2022-08-04T00:27:04.467Z,17.94
2022-08-04T00:29:35.583Z,17.94
2022-08-04T00:32:05.164Z,17.91
2022-08-04T00:34:34.548Z,17.81
2022-08-04T00:37:05.249Z,17.70
2022-08-04T00:39:35.041Z,17.57
2022-08-04T00:42:37.898Z,17.48
2022-08-04T00:46:16.386Z,17.44
2022-08-04T00:49:23.503Z,17.49
2022-08-04T00:52:32.578Z,17.55
2022-08-04T00:54:57.491Z,17.62
2022-08-04T00:58:19.739Z,17.67
2022-08-04T01:01:22.351Z,17.69
2022-08-04T01:04:09.021Z,17.62
2022-08-04T01:06:56.407Z,17.44
2022-08-04T01:10:02.757Z,17.22
2022-08-04T01:12:58.842Z,17.04
2022-08-04T01:16:00.571Z,16.87
2022-08-04T01:19:08.462Z,16.78
2022-08-04T01:21:55.677Z,16.65
2022-08-04T01:24:42.564Z,16.56
2022-08-04T01:27:43.451Z,16.51
2022-08-04T01:30:12.204Z,16.49
2022-08-04T01:33:02.546Z,16.48
2022-08-04T01:35:49.079Z,16.50
2022-08-04T01:38:33.927Z,16.50
2022-08-04T01:41:14.219Z,16.53
2022-08-04T01:43:47.445Z,16.55
2022-08-04T01:46:18.061Z,16.59
2022-08-04T01:48:54.169Z,16.63
2022-08-04T01:51:24.726Z,16.68
2022-08-04T01:53:53.348Z,16.73
2022-08-04T01:56:22.644Z,16.75
2022-08-04T01:58:51.596Z,16.78
2022-08-04T02:01:20.058Z,16.82
2022-08-04T02:04:19.786Z,16.88
2022-08-04T02:07:05.358Z,16.96
2022-08-04T02:10:08.519Z,17.02
2022-08-04T02:13:20.374Z,17.09
2022-08-04T02:16:12.953Z,17.15
2022-08-04T02:19:14.820Z,17.19
2022-08-04T02:21:48.946Z,17.21
2022-08-04T02:24:24.344Z,17.22
2022-08-04T02:26:56.457Z,17.25
2022-08-04T02:29:51.941Z,17.29
2022-08-04T02:32:29.830Z,17.34
2022-08-04T02:35:20.805Z,17.38
2022-08-04T02:38:11.705Z,17.41
2022-08-04T02:40:42.189Z,17.46
2022-08-04T02:43:11.406Z,17.50
2022-08-04T02:45:43.705Z,17.53
2022-08-04T02:48:31.039Z,17.60
2022-08-04T02:51:01.422Z,17.69
2022-08-04T02:53:37.269Z,17.78
2022-08-04T02:56:09.244Z,17.89
2022-08-04T02:58:41.437Z,17.96
2022-08-04T03:01:09.875Z,18.03
2022-08-04T03:03:53.341Z,18.10
2022-08-04T03:06:49.056Z,18.16
2022-08-04T03:10:02.246Z,18.19
2022-08-04T03:13:16.185Z,18.18
2022-08-04T03:16:12.149Z,18.17
2022-08-04T03:19:12.943Z,18.16
2022-08-04T03:22:10.410Z,18.13
2022-08-04T03:24:47.299Z,18.02
2022-08-04T03:27:36.307Z,18.06
2022-08-04T03:31:03.017Z,18.04
2022-08-04T03:34:28.623Z,18.03
2022-08-04T03:37:30.228Z,18.04
2022-08-04T03:40:40.191Z,18.05
2022-08-04T03:43:57.753Z,18.09
2022-08-04T03:46:27.357Z,18.15
2022-08-04T03:49:34.357Z,18.22
2022-08-04T03:53:10.266Z,18.29
2022-08-04T03:56:08.737Z,18.37
2022-08-04T03:58:52.047Z,18.42
2022-08-04T04:02:02.511Z,18.48
2022-08-04T04:04:58.615Z,18.55
2022-08-04T04:07:52.891Z,18.64
2022-08-04T04:10:52.574Z,18.73
2022-08-04T04:13:57.849Z,18.82
2022-08-04T04:16:37.753Z,18.90
2022-08-04T04:19:34.141Z,18.99
2022-08-04T04:22:44.829Z,19.10
2022-08-04T04:25:13.161Z,19.19
2022-08-04T04:28:45.103Z,19.26
2022-08-04T04:31:36.273Z,19.34
2022-08-04T04:34:58.405Z,19.38
2022-08-04T04:38:18.579Z,19.45
2022-08-04T04:41:12.982Z,19.52
2022-08-04T04:43:53.503Z,19.57
2022-08-04T04:46:50.267Z,19.59
2022-08-04T04:49:41.058Z,19.61
2022-08-04T04:52:09.379Z,19.64
2022-08-04T04:54:46.067Z,19.61
2022-08-04T04:57:54.657Z,19.71
2022-08-04T05:00:14.899Z,19.77
2022-08-04T05:02:46.027Z,19.86
2022-08-04T05:05:57.877Z,19.87
2022-08-04T05:09:03.931Z,20.03
2022-08-04T05:11:44.256Z,20.17
2022-08-04T05:14:38.858Z,20.26
2022-08-04T05:17:22.508Z,20.37
2022-08-04T05:20:22.778Z,20.51
2022-08-04T05:23:16.439Z,20.64
2022-08-04T05:25:59.326Z,20.87
2022-08-04T05:28:36.739Z,21.02
2022-08-04T05:31:34.731Z,21.20
2022-08-04T05:34:20.789Z,21.39
2022-08-04T05:36:58.994Z,21.47
2022-08-04T05:39:37.297Z,21.51
2022-08-04T05:42:07.727Z,21.62
2022-08-04T05:44:38.620Z,21.74
2022-08-04T05:47:08.705Z,21.73
2022-08-04T05:49:39.541Z,21.65
2022-08-04T05:52:10.375Z,21.57
2022-08-04T05:54:40.712Z,21.54
2022-08-04T05:57:11.454Z,21.59
2022-08-04T05:59:46.518Z,21.72
2022-08-04T06:02:18.007Z,21.90
2022-08-04T06:04:50.354Z,22.08
2022-08-04T06:07:20.312Z,22.22
2022-08-04T06:09:49.163Z,22.37
2022-08-04T06:12:36.457Z,22.47
2022-08-04T06:15:13.473Z,22.59
2022-08-04T06:19:56.791Z,22.69
2022-08-04T06:20:41.159Z,22.80
2022-08-04T06:23:20.992Z,22.86
2022-08-04T06:25:55.153Z,22.86
2022-08-04T06:28:24.559Z,22.83
2022-08-04T06:30:55.610Z,22.81
2022-08-04T06:33:27.116Z,22.92
2022-08-04T06:35:55.967Z,23.07
2022-08-04T06:38:30.519Z,23.15
2022-08-04T06:40:59.921Z,23.27
2022-08-04T06:43:29.621Z,23.29
2022-08-04T06:46:02.934Z,23.43
2022-08-04T06:48:33.735Z,23.49
2022-08-04T06:51:27.119Z,23.55
2022-08-04T06:53:52.808Z,23.67
2022-08-04T06:56:21.627Z,23.78
2022-08-04T06:58:53.498Z,23.86
2022-08-04T07:01:26.947Z,23.94
2022-08-04T07:03:55.907Z,24.00
2022-08-04T07:06:25.754Z,24.04
2022-08-04T07:08:56.697Z,24.08
2022-08-04T07:11:26.432Z,24.14
2022-08-04T07:13:55.249Z,24.15
2022-08-04T07:16:29.752Z,24.18
2022-08-04T07:19:10.177Z,24.27
2022-08-04T07:21:40.403Z,24.31
2022-08-04T07:24:34.111Z,24.37
2022-08-04T07:27:06.522Z,24.36
2022-08-04T07:29:40.252Z,24.53
2022-08-04T07:32:11.161Z,24.56
2022-08-04T07:34:42.016Z,24.51
2022-08-04T07:37:11.131Z,24.57
2022-08-04T07:39:48.352Z,24.58
2022-08-04T07:42:21.534Z,24.60
2022-08-04T07:44:50.736Z,24.67
2022-08-04T07:47:24.968Z,24.68
2022-08-04T07:49:57.585Z,24.69
2022-08-04T07:52:28.117Z,24.80
2022-08-04T07:54:56.897Z,24.85
2022-08-04T07:57:41.242Z,24.96
2022-08-04T08:00:14.963Z,25.03
2022-08-04T08:02:48.575Z,25.05
2022-08-04T08:05:19.786Z,25.08
2022-08-04T08:07:54.748Z,25.17
2022-08-04T08:10:25.320Z,25.24
2022-08-04T08:12:54.751Z,25.24
2022-08-04T08:15:23.625Z,25.21
2022-08-04T08:17:59.934Z,25.30
2022-08-04T08:20:32.080Z,25.40
2022-08-04T08:23:02.318Z,25.33
2022-08-04T08:25:33.376Z,25.21
2022-08-04T08:28:04.696Z,25.25
2022-08-04T08:30:34.426Z,25.31
2022-08-04T08:33:07.524Z,25.36
2022-08-04T08:36:08.066Z,25.30
2022-08-04T08:38:45.453Z,25.33
2022-08-04T08:41:58.539Z,25.30
2022-08-04T08:44:57.657Z,25.27
2022-08-04T08:48:06.072Z,25.48
2022-08-04T08:51:31.927Z,25.60
2022-08-04T08:54:09.872Z,25.77
2022-08-04T08:56:54.464Z,25.93
2022-08-04T08:59:37.952Z,25.87
2022-08-04T09:02:48.708Z,25.71
2022-08-04T09:06:02.550Z,25.56
2022-08-04T09:08:37.012Z,25.57
2022-08-04T09:11:13.291Z,25.56
2022-08-04T09:14:10.688Z,25.52
2022-08-04T09:16:55.599Z,25.71
2022-08-04T09:19:46.188Z,25.93
2022-08-04T09:22:22.831Z,25.99
2022-08-04T09:25:16.397Z,26.11
2022-08-04T09:27:55.873Z,26.31
2022-08-04T09:31:10.094Z,26.50
2022-08-04T09:33:44.834Z,26.47
2022-08-04T09:36:28.852Z,26.42
2022-08-04T09:39:28.199Z,26.50
2022-08-04T09:42:34.292Z,26.52
2022-08-04T09:45:26.617Z,26.50
2022-08-04T09:48:15.359Z,26.57
2022-08-04T09:50:50.508Z,26.55
2022-08-04T09:53:39.043Z,26.50
2022-08-04T09:56:42.025Z,26.55
2022-08-04T09:59:30.365Z,26.52
2022-08-04T10:02:07.893Z,26.70
2022-08-04T10:04:39.719Z,26.94
2022-08-04T10:07:36.041Z,27.07
2022-08-04T10:10:18.385Z,27.07
2022-08-04T10:12:55.674Z,26.99
2022-08-04T10:16:12.896Z,26.86
2022-08-04T10:18:43.963Z,26.65
2022-08-04T10:21:59.754Z,26.53
2022-08-04T10:26:02.627Z,26.41
2022-08-04T10:28:06.894Z,26.59
2022-08-04T10:30:39.744Z,26.70
2022-08-04T10:33:23.791Z,27.06
2022-08-04T10:36:00.552Z,27.27
2022-08-04T10:38:48.380Z,27.40
2022-08-04T10:41:40.798Z,27.46
2022-08-04T10:44:24.768Z,27.34
2022-08-04T10:47:08.443Z,27.29
2022-08-04T10:49:56.444Z,27.40
2022-08-04T10:52:38.322Z,27.58
2022-08-04T10:55:19.247Z,27.77
2022-08-04T10:58:01.565Z,27.91
2022-08-04T11:00:33.902Z,28.04
2022-08-04T11:03:09.274Z,27.84
2022-08-04T11:05:59.395Z,27.66
2022-08-04T11:08:35.650Z,27.65
2022-08-04T11:12:01.691Z,27.59
2022-08-04T11:15:00.204Z,27.65
2022-08-04T11:17:38.224Z,27.71
2022-08-04T11:20:36.969Z,27.91
2022-08-04T11:23:17.479Z,28.10
2022-08-04T11:26:45.128Z,28.15
2022-08-04T11:29:57.487Z,27.98
2022-08-04T11:33:25.300Z,27.78
2022-08-04T11:36:11.020Z,27.70
2022-08-04T11:39:08.476Z,27.79
2022-08-04T11:41:50.871Z,27.86
2022-08-04T11:44:49.046Z,27.80
2022-08-04T11:47:54.715Z,27.86
2022-08-04T11:50:25.719Z,27.92
2022-08-04T11:52:57.181Z,28.08
2022-08-04T11:55:29.082Z,28.29
2022-08-04T11:57:57.816Z,28.37
2022-08-04T12:00:31.555Z,28.29
2022-08-04T12:04:03.419Z,28.10
2022-08-04T12:10:41.345Z,27.80
2022-08-04T12:13:47.836Z,27.64
2022-08-04T12:16:56.206Z,27.28
2022-08-04T12:20:04.298Z,26.90
2022-08-04T12:22:29.743Z,26.66
2022-08-04T12:25:08.104Z,26.52
2022-08-04T12:27:52.765Z,26.46
2022-08-04T12:30:58.724Z,26.48
2022-08-04T12:34:03.547Z,26.88
2022-08-04T12:36:37.908Z,27.57
2022-08-04T12:39:10.630Z,28.43
2022-08-04T12:42:21.609Z,28.97
2022-08-04T12:44:54.530Z,29.01
2022-08-04T12:47:29.759Z,28.52
2022-08-04T12:50:03.970Z,27.95
2022-08-04T12:53:03.191Z,27.36
2022-08-04T12:55:37.316Z,26.72
2022-08-04T12:58:42.673Z,25.73
2022-08-04T13:02:07.840Z,24.86
2022-08-04T13:04:04.551Z,24.55
2022-08-04T13:06:37.591Z,24.37
2022-08-04T13:09:09.936Z,24.32
2022-08-04T13:11:58.107Z,24.19
2022-08-04T13:14:38.346Z,24.19
2022-08-04T13:17:09.592Z,24.23
2022-08-04T13:19:41.370Z,24.60
2022-08-04T13:22:10.535Z,25.14
2022-08-04T13:24:57.152Z,25.30
2022-08-04T13:27:42.852Z,25.33
2022-08-04T13:30:23.089Z,25.29
2022-08-04T13:33:02.622Z,25.32
2022-08-04T13:35:55.926Z,25.57
2022-08-04T13:38:24.885Z,26.17
2022-08-04T13:40:57.162Z,26.76
2022-08-04T13:44:16.518Z,27.50
2022-08-04T13:46:59.203Z,28.10
2022-08-04T13:49:37.987Z,28.45
2022-08-04T13:52:16.156Z,28.95
2022-08-04T13:54:47.853Z,29.29
2022-08-04T13:57:30.059Z,29.54
2022-08-04T14:00:08.146Z,29.80
2022-08-04T14:02:45.426Z,29.63
2022-08-04T14:05:58.780Z,29.13
2022-08-04T14:08:31.416Z,28.47
2022-08-04T14:11:00.947Z,27.84
2022-08-04T14:13:40.958Z,27.51
2022-08-04T14:16:21.868Z,27.18
2022-08-04T14:19:01.564Z,26.85
2022-08-04T14:21:36.437Z,26.61
2022-08-04T14:24:05.496Z,26.27
2022-08-04T14:26:37.154Z,25.82
2022-08-04T14:29:27.574Z,25.31
2022-08-04T14:32:05.960Z,24.63
2022-08-04T14:34:44.983Z,23.93
2022-08-04T14:37:19.727Z,23.31
2022-08-04T14:40:18.834Z,22.91
2022-08-04T14:42:54.649Z,22.61
2022-08-04T14:45:30.102Z,22.47
2022-08-04T14:47:59.658Z,22.38
2022-08-04T14:50:54.840Z,22.29
2022-08-04T14:53:32.151Z,22.29
2022-08-04T14:56:01.127Z,22.32
2022-08-04T14:58:38.745Z,22.34
2022-08-04T15:01:12.933Z,22.35
2022-08-04T15:03:49.687Z,22.39
2022-08-04T15:06:26.877Z,22.44
2022-08-04T15:09:02.716Z,22.53
2022-08-04T15:11:31.494Z,22.64
2022-08-04T15:14:00.219Z,22.74
2022-08-04T15:16:32.036Z,22.86
2022-08-04T15:19:02.197Z,22.98
2022-08-04T15:21:31.439Z,23.13
2022-08-04T15:24:00.214Z,23.32
2022-08-04T15:26:34.795Z,23.56
2022-08-04T15:29:16.735Z,24.05
2022-08-04T15:32:06.046Z,24.51
2022-08-04T15:34:51.711Z,24.68
2022-08-04T15:37:44.902Z,24.75
2022-08-04T15:40:33.486Z,24.80
2022-08-04T15:43:22.634Z,24.86
2022-08-04T15:46:42.609Z,24.94
2022-08-04T15:48:54.830Z,25.11
2022-08-04T15:51:30.451Z,25.27
2022-08-04T15:54:23.568Z,25.35
2022-08-04T15:57:02.429Z,25.38
2022-08-04T16:00:12.780Z,25.51
2022-08-04T16:02:43.981Z,25.75
2022-08-04T16:05:18.528Z,26.03
2022-08-04T16:08:11.873Z,26.17
2022-08-04T16:10:47.144Z,26.14
2022-08-04T16:13:22.673Z,26.18
2022-08-04T16:15:50.941Z,26.23
2022-08-04T16:18:31.563Z,26.23
2022-08-04T16:21:05.385Z,26.23
2022-08-04T16:24:18.953Z,26.18
2022-08-04T16:26:56.377Z,26.06
2022-08-04T16:29:41.752Z,25.94
2022-08-04T16:32:13.807Z,25.81
2022-08-04T16:35:06.039Z,25.68
2022-08-04T16:37:42.679Z,25.53
2022-08-04T16:40:38.040Z,25.36
2022-08-04T16:43:13.397Z,25.20
2022-08-04T16:45:54.438Z,25.07
2022-08-04T16:48:36.513Z,24.97
2022-08-04T16:51:10.073Z,24.87
2022-08-04T16:54:04.314Z,24.77
2022-08-04T16:56:35.311Z,24.65
2022-08-04T16:59:13.332Z,24.54
2022-08-04T17:01:48.927Z,24.43
2022-08-04T17:04:17.610Z,24.33
2022-08-04T17:06:49.600Z,24.23
2022-08-04T17:09:22.456Z,24.13
2022-08-04T17:11:57.806Z,24.04
2022-08-04T17:14:30.773Z,23.96
2022-08-04T17:17:04.396Z,23.90
2022-08-04T17:19:38.292Z,23.82
2022-08-04T17:22:20.956Z,23.77
2022-08-04T17:24:51.412Z,23.72
2022-08-04T17:28:08.973Z,23.69
2022-08-04T17:30:30.359Z,23.65
2022-08-04T17:32:59.774Z,23.61
2022-08-04T17:35:38.837Z,23.57
2022-08-04T17:38:07.648Z,23.53
2022-08-04T17:40:54.046Z,23.49
2022-08-04T17:44:06.474Z,23.44
2022-08-04T17:46:48.193Z,23.40
2022-08-04T17:49:22.974Z,23.37
2022-08-04T17:52:05.971Z,23.34
2022-08-04T17:54:40.674Z,23.31
2022-08-04T17:57:22.886Z,23.30
2022-08-04T17:59:59.630Z,23.27
2022-08-04T18:02:32.736Z,23.23
2022-08-04T18:05:12.321Z,23.19
2022-08-04T18:08:39.726Z,23.14
2022-08-04T18:10:54.323Z,23.08
2022-08-04T18:13:28.413Z,23.04
2022-08-04T18:16:14.630Z,22.99
2022-08-04T18:19:15.766Z,22.95
2022-08-04T18:21:59.763Z,22.91
2022-08-04T18:24:55.851Z,22.90
2022-08-04T18:27:26.737Z,22.89
2022-08-04T18:30:34.287Z,22.87
2022-08-04T18:33:04.279Z,22.84
2022-08-04T18:36:34.100Z,22.85
2022-08-04T18:38:27.463Z,22.84
2022-08-04T18:40:58.838Z,22.82
2022-08-04T18:43:28.453Z,22.81
2022-08-04T18:45:59.815Z,22.77
2022-08-04T18:48:36.115Z,22.71
2022-08-04T18:51:11.376Z,22.66
2022-08-04T18:53:54.754Z,22.61
2022-08-04T18:56:31.806Z,22.58
2022-08-04T18:59:19.405Z,22.56
2022-08-04T19:02:13.518Z,22.55
2022-08-04T19:04:37.180Z,22.55
2022-08-04T19:07:28.699Z,22.55
2022-08-04T19:09:59.742Z,22.55
2022-08-04T19:12:29.121Z,22.55
2022-08-04T19:15:08.901Z,22.55
2022-08-04T19:17:52.547Z,22.56
2022-08-04T19:20:29.443Z,22.55
2022-08-04T19:24:28.359Z,22.37
2022-08-04T19:26:03.750Z,22.16
2022-08-04T19:31:34.304Z,21.84
2022-08-04T19:34:09.397Z,21.72
2022-08-04T19:36:38.442Z,21.64
2022-08-04T19:39:14.512Z,21.60
2022-08-04T19:42:05.674Z,21.57
2022-08-04T19:44:33.264Z,21.48
2022-08-04T19:47:02.505Z,21.42
2022-08-04T19:50:03.760Z,21.28
2022-08-04T19:52:38.933Z,21.24
2022-08-04T19:55:10.836Z,21.14
2022-08-04T19:57:49.703Z,21.05
2022-08-04T20:00:33.364Z,20.94
2022-08-04T20:03:11.665Z,20.86
2022-08-04T20:05:53.859Z,20.74
2022-08-04T20:08:29.685Z,20.66
2022-08-04T20:11:00.189Z,20.60
2022-08-04T20:16:29.899Z,20.44
2022-08-04T20:19:03.694Z,20.41
2022-08-04T20:21:36.679Z,20.39
2022-08-04T20:24:38.115Z,20.34
2022-08-04T20:27:15.495Z,20.28
2022-08-04T20:29:51.109Z,20.20
2022-08-04T20:32:26.455Z,20.10
2022-08-04T20:34:57.577Z,20.00
2022-08-04T20:37:55.119Z,19.93
2022-08-04T20:40:17.091Z,19.84
2022-08-04T20:42:48.207Z,19.76
2022-08-04T20:45:18.216Z,19.69
2022-08-04T20:47:53.132Z,19.66
2022-08-04T20:50:30.032Z,19.63
2022-08-04T20:52:59.711Z,19.56
2022-08-04T20:55:29.688Z,19.50
2022-08-04T20:58:03.174Z,19.46
2022-08-04T21:00:32.637Z,19.41
2022-08-04T21:03:05.238Z,19.37
2022-08-04T21:05:33.832Z,19.31
2022-08-04T21:08:03.681Z,19.29
2022-08-04T21:10:32.973Z,19.25
2022-08-04T21:13:01.565Z,19.26
2022-08-04T21:15:58.631Z,19.26
2022-08-04T21:18:19.420Z,19.30
2022-08-04T21:20:58.109Z,19.34
2022-08-04T21:23:26.787Z,19.37
2022-08-04T21:28:47.006Z,19.42
2022-08-04T21:31:21.906Z,19.42
2022-08-04T21:33:52.034Z,19.42
2022-08-04T21:36:21.279Z,19.43
2022-08-04T21:38:51.291Z,19.42
2022-08-04T21:41:24.622Z,19.44
2022-08-04T21:43:58.650Z,19.48
2022-08-04T21:46:29.943Z,19.51
2022-08-04T21:49:00.087Z,19.52
2022-08-04T21:51:58.543Z,19.51
2022-08-04T21:54:23.956Z,19.41
2022-08-04T21:56:52.936Z,19.31
2022-08-04T21:59:30.343Z,19.16
2022-08-04T22:02:01.567Z,19.07
2022-08-04T22:04:31.039Z,18.99
2022-08-04T22:07:03.218Z,18.91
2022-08-04T22:09:38.683Z,18.78
2022-08-04T22:12:12.341Z,18.63
2022-08-04T22:14:41.400Z,18.53
2022-08-04T22:17:13.536Z,18.46
2022-08-04T22:19:54.837Z,18.37
2022-08-04T22:22:35.600Z,18.30
2022-08-04T22:28:02.748Z,18.26
2022-08-04T22:30:36.468Z,18.23
2022-08-04T22:33:08.989Z,18.18
2022-08-04T22:35:48.673Z,18.15
2022-08-04T22:38:24.030Z,18.08
2022-08-04T22:41:19.223Z,17.99
2022-08-04T22:43:54.779Z,17.93
2022-08-04T22:46:27.188Z,17.86
2022-08-04T22:48:57.051Z,17.84
2022-08-04T22:51:27.267Z,17.79
2022-08-04T22:53:55.879Z,17.78
2022-08-04T22:56:38.083Z,17.78
2022-08-04T22:59:10.845Z,17.77
2022-08-04T23:02:00.820Z,17.76
2022-08-04T23:04:32.589Z,17.74
2022-08-04T23:07:05.242Z,17.73
2022-08-04T23:09:50.353Z,17.73
2022-08-04T23:12:26.002Z,17.72
2022-08-04T23:14:57.296Z,17.74
2022-08-04T23:17:28.695Z,17.72
2022-08-04T23:19:59.614Z,17.72
2022-08-04T23:22:37.439Z,17.69
2022-08-04T23:25:15.969Z,17.67
2022-08-04T23:27:50.882Z,17.68
2022-08-04T23:30:24.918Z,17.69
2022-08-04T23:32:59.040Z,17.70
2022-08-04T23:35:30.897Z,17.70
2022-08-04T23:38:30.383Z,17.70
2022-08-04T23:40:50.058Z,17.70
2022-08-04T23:43:23.133Z,17.68
2022-08-04T23:46:06.297Z,17.68
2022-08-04T23:48:39.143Z,17.70
2022-08-04T23:51:13.942Z,17.71
2022-08-04T23:54:03.017Z,17.74
2022-08-04T23:56:37.823Z,17.75
2022-08-04T23:59:18.071Z,17.79
